Time;durP1;ratioP1;P1;durP2;ratioP2;P2;SDS_P1;SDS_P2;PMS_P1;PMS_P2;Temp;Humidity;BMP_temperature;BMP_pressure;BME280_temperature;BME280_humidity;BME280_pressure;Samples;Min_cycle;Max_cycle;Signal;HPM_P1;HPM_P2
2023/05/12 00:02:17;;;;;;;3.10;2.60;;;;;12.10;96560.00;;;;5087584;28;20696;-64
2023/05/12 00:05:07;;;;;;;2.47;2.27;;;;;12.10;96557.00;;;;5087073;28;20219;-65
2023/05/12 00:07:58;;;;;;;3.97;3.20;;;;;12.10;96557.00;;;;5084290;28;20230;-64
2023/05/12 00:10:47;;;;;;;3.77;3.47;;;;;12.10;96555.00;;;;5085839;28;20674;-64
2023/05/12 00:13:36;;;;;;;3.17;2.87;;;;;12.10;96554.00;;;;5086864;28;20293;-64
2023/05/12 00:16:25;;;;;;;3.33;3.03;;;;;12.10;96562.00;;;;5086620;28;20709;-64
2023/05/12 00:19:14;;;;;;;3.60;3.17;;;;;12.10;96554.00;;;;5089547;28;20213;-64
2023/05/12 00:22:04;;;;;;;3.43;3.13;;;;;12.20;96548.00;;;;5089969;28;20208;-64
2023/05/12 00:24:54;;;;;;;4.07;3.50;;;;;12.20;96553.00;;;;5084744;28;20589;-64
2023/05/12 00:27:43;;;;;;;4.50;2.70;;;;;12.20;96548.00;;;;5090595;28;20235;-64
2023/05/12 00:30:32;;;;;;;4.23;2.60;;;;;12.00;96548.00;;;;5090066;28;20207;-64
2023/05/12 00:33:21;;;;;;;2.90;2.70;;;;;12.20;96549.00;;;;5089799;28;20300;-65
2023/05/12 00:36:10;;;;;;;2.53;2.33;;;;;12.30;96547.00;;;;5106738;28;20206;-64
2023/05/12 00:38:59;;;;;;;3.00;2.47;;;;;12.30;96547.00;;;;5085442;28;20239;-64
2023/05/12 00:41:55;;;;;;;2.53;2.33;;;;;12.20;96543.00;;;;5090862;28;20199;-64
2023/05/12 00:44:44;;;;;;;3.13;2.87;;;;;12.20;96539.00;;;;5089983;28;20206;-64
2023/05/12 00:47:33;;;;;;;3.13;2.83;;;;;12.20;96536.00;;;;5089984;28;20599;-64
2023/05/12 00:50:23;;;;;;;2.43;2.23;;;;;12.20;96538.00;;;;5090100;28;20207;-65
2023/05/12 00:53:12;;;;;;;6.87;2.53;;;;;12.10;96532.00;;;;5090516;28;20203;-64
2023/05/12 00:56:01;;;;;;;3.40;3.00;;;;;12.10;96526.00;;;;5090073;28;20576;-64
2023/05/12 00:58:52;;;;;;;2.30;2.10;;;;;12.10;96526.00;;;;5089821;28;20222;-65
2023/05/12 01:01:41;;;;;;;2.53;2.33;;;;;12.10;96530.00;;;;5090788;28;20195;-64
2023/05/12 01:04:31;;;;;;;2.27;2.10;;;;;12.10;96532.00;;;;5089612;28;20211;-64
2023/05/12 01:07:22;;;;;;;2.27;1.97;;;;;12.00;96528.00;;;;5088864;28;20842;-64
2023/05/12 01:10:18;;;;;;;2.50;2.30;;;;;11.80;96530.00;;;;5090676;28;20658;-64
2023/05/12 01:13:07;;;;;;;2.47;2.10;;;;;12.00;96543.00;;;;5085608;28;20203;-64
2023/05/12 01:16:00;;;;;;;2.27;2.03;;;;;11.90;96538.00;;;;5090281;28;20222;-65
2023/05/12 01:18:52;;;;;;;3.33;3.03;;;;;11.90;96533.00;;;;5089470;28;20203;-64
2023/05/12 01:21:41;;;;;;;2.90;2.50;;;;;11.90;96533.00;;;;5088546;28;20192;-64
2023/05/12 01:24:32;;;;;;;4.00;2.43;;;;;12.10;96535.00;;;;5089543;28;20292;-64
2023/05/12 01:27:24;;;;;;;5.10;2.93;;;;;12.20;96538.00;;;;5090087;28;20228;-64
2023/05/12 01:30:17;;;;;;;2.47;2.27;;;;;12.20;96528.00;;;;5088815;28;20214;-64
2023/05/12 01:33:06;;;;;;;2.77;2.50;;;;;12.30;96534.00;;;;5090172;28;20207;-64
2023/05/12 01:35:55;;;;;;;2.70;2.50;;;;;12.30;96531.00;;;;5103105;28;20199;-65
2023/05/12 01:38:44;;;;;;;2.93;2.47;;;;;12.30;96535.00;;;;5109947;28;20226;-64
2023/05/12 01:41:33;;;;;;;5.40;3.53;;;;;12.30;96530.00;;;;5108791;28;20220;-64
2023/05/12 01:44:23;;;;;;;3.33;2.97;;;;;12.30;96540.00;;;;5109240;28;20203;-64
2023/05/12 01:47:14;;;;;;;3.13;2.50;;;;;12.30;96536.00;;;;5109752;28;20317;-65
2023/05/12 01:50:03;;;;;;;2.93;2.63;;;;;12.20;96535.00;;;;5110319;28;20198;-64
2023/05/12 01:52:52;;;;;;;2.63;2.43;;;;;12.20;96531.00;;;;5109994;28;20255;-64
2023/05/12 01:55:41;;;;;;;3.07;2.50;;;;;12.20;96528.00;;;;5109766;28;20202;-65
2023/05/12 01:58:30;;;;;;;2.50;2.30;;;;;12.10;96529.00;;;;5109482;28;20235;-65
2023/05/12 02:01:22;;;;;;;3.10;2.80;;;;;12.20;96536.00;;;;5109846;28;20206;-64
2023/05/12 02:04:11;;;;;;;3.33;2.90;;;;;12.20;96528.00;;;;5109146;28;20206;-65
2023/05/12 02:07:00;;;;;;;4.93;2.37;;;;;12.30;96529.00;;;;5083201;28;20235;-64
2023/05/12 02:09:49;;;;;;;2.00;1.90;;;;;12.30;96524.00;;;;5088072;28;20202;-64
2023/05/12 02:12:39;;;;;;;2.50;2.10;;;;;12.30;96526.00;;;;5086682;28;20191;-64
2023/05/12 02:15:28;;;;;;;2.33;1.80;;;;;12.20;96526.00;;;;5089186;28;20857;-64
2023/05/12 02:18:18;;;;;;;2.60;2.03;;;;;12.20;96521.00;;;;5087872;28;20305;-64
2023/05/12 02:21:07;;;;;;;2.07;1.73;;;;;12.10;96512.00;;;;5087793;28;20716;-65
2023/05/12 02:23:56;;;;;;;2.10;1.93;;;;;12.10;96522.00;;;;5089728;28;20635;-65
2023/05/12 02:26:45;;;;;;;2.13;1.87;;;;;12.10;96528.00;;;;5087746;28;20219;-64
2023/05/12 02:29:35;;;;;;;2.10;1.90;;;;;12.10;96519.00;;;;5089048;28;20199;-64
2023/05/12 02:32:26;;;;;;;4.00;2.10;;;;;12.10;96521.00;;;;5089029;28;20203;-64
2023/05/12 02:35:17;;;;;;;2.03;1.83;;;;;12.10;96518.00;;;;5094492;28;20198;-64
2023/05/12 02:38:06;;;;;;;1.80;1.70;;;;;12.10;96515.00;;;;5107330;28;20281;-64
2023/05/12 02:40:55;;;;;;;1.70;1.53;;;;;12.00;96507.00;;;;5108745;28;20223;-64
2023/05/12 02:43:44;;;;;;;2.13;2.00;;;;;12.10;96515.00;;;;5088150;28;20238;-64
2023/05/12 02:46:33;;;;;;;2.43;2.23;;;;;12.10;96508.00;;;;5087515;28;20222;-65
2023/05/12 02:49:22;;;;;;;1.50;1.40;;;;;12.20;96502.00;;;;5086927;28;20207;-65
2023/05/12 02:52:13;;;;;;;2.17;1.97;;;;;12.20;96508.00;;;;5088136;28;20195;-64
2023/05/12 02:55:02;;;;;;;2.43;2.20;;;;;12.20;96504.00;;;;5084353;28;20210;-65
2023/05/12 02:57:51;;;;;;;3.77;1.73;;;;;12.30;96496.00;;;;5087703;28;20212;-64
2023/05/12 03:00:40;;;;;;;2.23;1.87;;;;;12.30;96507.00;;;;5086743;28;20207;-64
2023/05/12 03:03:29;;;;;;;2.03;1.77;;;;;12.30;96499.00;;;;5087837;28;21006;-64
2023/05/12 03:06:18;;;;;;;2.20;2.00;;;;;12.20;96496.00;;;;5084893;28;20243;-64
2023/05/12 03:09:08;;;;;;;2.27;1.90;;;;;12.00;96504.00;;;;5088095;28;20195;-64
2023/05/12 03:11:57;;;;;;;1.90;1.80;;;;;12.10;96498.00;;;;5082605;28;20315;-65
2023/05/12 03:14:47;;;;;;;1.87;1.77;;;;;12.10;96498.00;;;;5088140;28;20206;-65
2023/05/12 03:17:36;;;;;;;2.47;2.07;;;;;12.00;96499.00;;;;5087228;28;20686;-65
2023/05/12 03:20:25;;;;;;;1.50;1.40;;;;;12.00;96502.00;;;;5087691;28;20689;-65
2023/05/12 03:23:15;;;;;;;2.43;2.07;;;;;12.00;96504.00;;;;5087323;28;20207;-64
2023/05/12 03:26:06;;;;;;;3.10;2.40;;;;;12.00;96502.00;;;;5082515;28;20226;-65
2023/05/12 03:28:55;;;;;;;1.80;1.70;;;;;12.00;96494.00;;;;5087090;28;20204;-65
2023/05/12 03:31:44;;;;;;;1.90;1.70;;;;;11.90;96495.00;;;;5084370;28;20776;-64
2023/05/12 03:34:33;;;;;;;1.73;1.63;;;;;11.80;96501.00;;;;5090167;28;20210;-64
2023/05/12 03:37:22;;;;;;;2.20;1.80;;;;;11.70;96504.00;;;;5092418;28;20230;-64
2023/05/12 03:40:17;;;;;;;2.53;1.77;;;;;11.80;96500.00;;;;5102055;28;20242;-63
2023/05/12 03:43:07;;;;;;;2.03;1.83;;;;;11.80;96498.00;;;;5107687;28;20202;-64
2023/05/12 03:45:56;;;;;;;11.87;8.23;;;;;11.80;96504.00;;;;5106295;28;20206;-64
2023/05/12 03:48:45;;;;;;;8.83;7.10;;;;;11.80;96508.00;;;;5107698;28;20720;-64
2023/05/12 03:51:34;;;;;;;3.10;2.80;;;;;11.80;96507.00;;;;5106350;28;20226;-65
2023/05/12 03:54:23;;;;;;;2.40;2.03;;;;;11.80;96510.00;;;;5110693;28;20201;-65
2023/05/12 03:57:13;;;;;;;3.13;2.90;;;;;11.80;96508.00;;;;5088555;28;20219;-64
2023/05/12 04:00:04;;;;;;;3.57;3.27;;;;;11.90;96507.00;;;;5095387;28;20218;-64
2023/05/12 04:02:53;;;;;;;1.70;1.60;;;;;12.00;96516.00;;;;5091859;28;20240;-64
2023/05/12 04:05:42;;;;;;;2.60;2.50;;;;;12.00;96506.00;;;;5091450;28;20592;-64
2023/05/12 04:08:32;;;;;;;1.90;1.80;;;;;12.00;96508.00;;;;5093133;28;20253;-64
2023/05/12 04:11:21;;;;;;;1.77;1.67;;;;;12.10;96508.00;;;;5084347;28;20679;-64
2023/05/12 04:14:10;;;;;;;1.40;1.30;;;;;12.20;96516.00;;;;5095786;28;20289;-64
2023/05/12 04:17:00;;;;;;;1.83;1.73;;;;;12.20;96508.00;;;;5094411;28;20226;-64
2023/05/12 04:19:51;;;;;;;1.50;1.33;;;;;12.20;96520.00;;;;5087070;28;20230;-64
2023/05/12 04:22:40;;;;;;;2.20;1.33;;;;;12.20;96516.00;;;;5085187;28;20264;-65
2023/05/12 04:25:29;;;;;;;1.30;1.20;;;;;12.20;96521.00;;;;5083209;28;20253;-64
2023/05/12 04:28:18;;;;;;;1.67;1.57;;;;;12.20;96516.00;;;;5087648;28;20713;-64
2023/05/12 04:31:07;;;;;;;1.20;1.10;;;;;12.20;96520.00;;;;5091269;28;20293;-64
2023/05/12 04:33:57;;;;;;;2.63;2.37;;;;;12.30;96525.00;;;;5111165;28;20719;-64
2023/05/12 04:36:46;;;;;;;2.87;1.43;;;;;12.30;96525.00;;;;5087783;28;20268;-64
2023/05/12 04:39:35;;;;;;;1.20;1.10;;;;;12.30;96531.00;;;;5090094;28;20195;-64
2023/05/12 04:42:24;;;;;;;1.33;1.23;;;;;12.30;96532.00;;;;5090808;28;20215;-65
2023/05/12 04:45:13;;;;;;;1.37;1.27;;;;;12.10;96534.00;;;;5090157;28;20203;-65
2023/05/12 04:48:02;;;;;;;2.50;1.20;;;;;12.20;96537.00;;;;5089439;28;20226;-65
2023/05/12 04:50:53;;;;;;;1.10;1.10;;;;;12.20;96546.00;;;;5088485;28;20202;-65
2023/05/12 04:53:42;;;;;;;1.27;1.17;;;;;12.20;96546.00;;;;5092539;28;20623;-65
2023/05/12 04:56:31;;;;;;;1.67;1.47;;;;;12.20;96549.00;;;;5092152;28;20233;-65
2023/05/12 04:59:20;;;;;;;1.10;1.10;;;;;12.40;96554.00;;;;5089430;28;20599;-65
2023/05/12 05:02:09;;;;;;;1.43;1.20;;;;;12.40;96554.00;;;;5090678;28;20207;-65
2023/05/12 05:04:58;;;;;;;1.60;1.37;;;;;12.50;96549.00;;;;5082750;28;20289;-65
2023/05/12 05:07:49;;;;;;;3.37;1.73;;;;;12.50;96552.00;;;;5080560;28;20693;-65
2023/05/12 05:10:38;;;;;;;1.90;1.30;;;;;12.50;96545.00;;;;5080628;28;20259;-65
2023/05/12 05:13:27;;;;;;;1.20;0.97;;;;;12.60;96552.00;;;;5083365;28;20203;-65
2023/05/12 05:16:16;;;;;;;1.00;0.90;;;;;12.50;96550.00;;;;5089229;28;20702;-65
2023/05/12 05:19:05;;;;;;;4.23;1.00;;;;;12.60;96553.00;;;;5083282;28;20195;-65
2023/05/12 05:21:54;;;;;;;0.90;0.90;;;;;12.50;96553.00;;;;5088344;28;20210;-65
2023/05/12 05:24:44;;;;;;;1.20;1.10;;;;;12.50;96556.00;;;;5086154;28;20277;-65
2023/05/12 05:27:33;;;;;;;1.20;1.10;;;;;12.40;96551.00;;;;5083059;28;20302;-65
2023/05/12 05:30:22;;;;;;;0.80;0.80;;;;;12.20;96560.00;;;;5086624;28;20199;-66
2023/05/12 05:33:12;;;;;;;2.03;1.80;;;;;12.00;96562.00;;;;5091005;28;20202;-65
2023/05/12 05:36:02;;;;;;;2.63;2.10;;;;;11.70;96560.00;;;;5089181;28;20618;-65
2023/05/12 05:38:51;;;;;;;1.63;1.53;;;;;11.70;96548.00;;;;5086325;28;20199;-65
2023/05/12 05:41:41;;;;;;;1.30;1.30;;;;;11.70;96557.00;;;;5100969;28;20254;-65
2023/05/12 05:44:30;;;;;;;2.87;1.50;;;;;11.70;96563.00;;;;5079058;28;20287;-66
2023/05/12 05:47:19;;;;;;;2.50;1.60;;;;;11.60;96568.00;;;;5081825;28;20599;-65
2023/05/12 05:50:09;;;;;;;1.80;1.70;;;;;11.80;96565.00;;;;5088676;28;20231;-65
2023/05/12 05:52:58;;;;;;;1.87;1.77;;;;;11.80;96566.00;;;;5081980;28;20704;-65
2023/05/12 05:55:48;;;;;;;2.00;1.90;;;;;11.70;96571.00;;;;5086245;28;20968;-65
2023/05/12 05:58:38;;;;;;;1.60;1.50;;;;;11.80;96571.00;;;;5088649;28;20208;-65
2023/05/12 06:01:27;;;;;;;1.60;1.50;;;;;12.20;96576.00;;;;5084917;28;20250;-66
2023/05/12 06:04:16;;;;;;;2.43;2.33;;;;;12.20;96568.00;;;;5085726;28;20683;-65
2023/05/12 06:07:06;;;;;;;2.17;1.97;;;;;12.40;96576.00;;;;5087886;28;20258;-65
2023/05/12 06:09:55;;;;;;;2.50;2.30;;;;;12.50;96569.00;;;;5083638;28;20218;-65
2023/05/12 06:12:44;;;;;;;1.13;1.07;;;;;12.50;96577.00;;;;5088179;28;20268;-65
2023/05/12 06:15:35;;;;;;;1.50;1.40;;;;;12.30;96578.00;;;;5087223;28;20238;-65
2023/05/12 06:18:24;;;;;;;1.27;1.17;;;;;12.30;96583.00;;;;5086824;28;20223;-65
2023/05/12 06:21:13;;;;;;;1.33;1.13;;;;;12.20;96578.00;;;;5089074;28;20225;-65
2023/05/12 06:24:02;;;;;;;1.00;1.00;;;;;12.30;96592.00;;;;5077807;28;20203;-66
2023/05/12 06:26:51;;;;;;;0.90;0.90;;;;;12.80;96590.00;;;;5086216;28;20575;-65
2023/05/12 06:29:40;;;;;;;1.17;1.07;;;;;12.80;96602.00;;;;5087388;28;20230;-65
2023/05/12 06:32:30;;;;;;;0.90;0.90;;;;;12.90;96598.00;;;;5087893;28;20196;-65
2023/05/12 06:35:19;;;;;;;1.00;1.00;;;;;13.10;96600.00;;;;5086686;28;20199;-65
2023/05/12 06:38:09;;;;;;;0.90;0.90;;;;;13.30;96606.00;;;;5087616;28;20234;-65
2023/05/12 06:40:58;;;;;;;1.27;1.17;;;;;13.30;96602.00;;;;5088659;28;20240;-65
2023/05/12 06:43:47;;;;;;;2.10;1.00;;;;;13.40;96615.00;;;;5086379;28;20200;-65
2023/05/12 06:46:36;;;;;;;2.23;1.10;;;;;13.60;96610.00;;;;5078873;28;20219;-65
2023/05/12 06:49:26;;;;;;;1.97;1.10;;;;;13.70;96621.00;;;;5081203;28;20569;-65
2023/05/12 06:52:15;;;;;;;1.60;1.50;;;;;13.80;96617.00;;;;5079176;28;20264;-65
2023/05/12 06:55:05;;;;;;;0.77;0.77;;;;;13.80;96617.00;;;;5083599;28;20216;-65
2023/05/12 06:57:55;;;;;;;1.20;1.10;;;;;14.10;96622.00;;;;5086183;28;20219;-65
2023/05/12 07:00:44;;;;;;;1.70;1.20;;;;;14.20;96632.00;;;;5079409;28;20278;-66
2023/05/12 07:03:33;;;;;;;3.23;1.77;;;;;14.30;96622.00;;;;5088102;28;20215;-65
2023/05/12 07:06:24;;;;;;;4.47;1.73;;;;;14.00;96609.00;;;;5077367;28;20624;-66
2023/05/12 07:09:13;;;;;;;1.30;1.30;;;;;14.20;96622.00;;;;5080895;28;20230;-66
2023/05/12 07:12:02;;;;;;;2.63;1.63;;;;;14.30;96618.00;;;;5081820;28;20199;-66
2023/05/12 07:14:51;;;;;;;1.93;1.80;;;;;14.40;96607.00;;;;5083726;28;20214;-66
2023/05/12 07:17:41;;;;;;;1.83;1.73;;;;;14.50;96613.00;;;;5086268;28;20223;-66
2023/05/12 07:20:30;;;;;;;1.83;1.70;;;;;14.60;96615.00;;;;5084463;28;20678;-66
2023/05/12 07:23:20;;;;;;;2.13;1.93;;;;;14.70;96615.00;;;;5084719;28;20785;-66
2023/05/12 07:26:09;;;;;;;1.50;1.37;;;;;14.60;96616.00;;;;5087621;28;20207;-66
2023/05/12 07:28:59;;;;;;;2.10;1.90;;;;;14.50;96618.00;;;;5087669;28;20219;-66
2023/05/12 07:31:48;;;;;;;3.30;1.50;;;;;14.60;96618.00;;;;5085282;28;20203;-66
2023/05/12 07:34:37;;;;;;;1.70;1.60;;;;;14.70;96613.00;;;;5080203;28;20204;-66
2023/05/12 07:37:26;;;;;;;1.50;1.10;;;;;14.70;96616.00;;;;5083665;28;20706;-66
2023/05/12 07:40:17;;;;;;;5.43;2.00;;;;;14.70;96617.00;;;;5096017;28;20195;-66
2023/05/12 07:43:06;;;;;;;2.03;1.87;;;;;14.70;96618.00;;;;5077956;28;20296;-66
2023/05/12 07:45:58;;;;;;;2.90;1.50;;;;;14.50;96618.00;;;;5090108;28;20203;-66
2023/05/12 07:48:47;;;;;;;3.03;1.47;;;;;14.60;96615.00;;;;5084335;28;20211;-66
2023/05/12 07:51:36;;;;;;;1.50;1.40;;;;;14.70;96618.00;;;;5080657;28;20916;-66
2023/05/12 07:54:25;;;;;;;2.43;1.60;;;;;14.90;96608.00;;;;5079346;28;20697;-66
2023/05/12 07:57:15;;;;;;;2.23;1.80;;;;;15.10;96610.00;;;;5080013;28;20227;-66
2023/05/12 08:00:05;;;;;;;2.63;2.13;;;;;15.20;96605.00;;;;5079651;28;20236;-66
2023/05/12 08:02:54;;;;;;;2.20;1.43;;;;;15.30;96612.00;;;;5075359;28;20563;-66
2023/05/12 08:05:43;;;;;;;3.57;2.00;;;;;15.00;96613.00;;;;5079887;28;20200;-66
2023/05/12 08:08:32;;;;;;;3.13;1.57;;;;;14.80;96611.00;;;;5078550;28;20219;-66
2023/05/12 08:11:21;;;;;;;1.30;1.00;;;;;14.90;96601.00;;;;5079619;28;20618;-66
2023/05/12 08:14:12;;;;;;;2.20;1.17;;;;;15.10;96596.00;;;;5074883;28;20203;-66
2023/05/12 08:17:01;;;;;;;1.37;1.27;;;;;15.70;96596.00;;;;5082360;28;20232;-66
2023/05/12 08:19:50;;;;;;;2.27;1.20;;;;;15.70;96609.00;;;;5080100;28;20192;-66
2023/05/12 08:22:39;;;;;;;1.70;0.90;;;;;14.70;96605.00;;;;5092795;28;20609;-66
2023/05/12 08:25:29;;;;;;;1.30;0.87;;;;;15.50;96616.00;;;;5079247;28;20222;-66
2023/05/12 08:28:18;;;;;;;1.63;0.90;;;;;15.90;96605.00;;;;5078125;28;20223;-66
2023/05/12 08:31:08;;;;;;;1.10;0.90;;;;;15.90;96604.00;;;;5092153;28;20229;-66
2023/05/12 08:33:57;;;;;;;0.60;0.60;;;;;16.10;96614.00;;;;5107666;28;20203;-66
2023/05/12 08:36:51;;;;;;;1.00;0.83;;;;;16.30;96619.00;;;;5091409;28;20210;-66
2023/05/12 08:39:40;;;;;;;1.37;0.90;;;;;16.30;96616.00;;;;5096006;28;20248;-66
2023/05/12 08:42:35;;;;;;;1.00;0.60;;;;;16.40;96617.00;;;;5098247;28;20203;-66
2023/05/12 08:45:24;;;;;;;0.70;0.70;;;;;16.10;96617.00;;;;5091720;28;20198;-66
2023/05/12 08:48:16;;;;;;;1.17;1.00;;;;;16.20;96624.00;;;;5091413;28;20635;-66
2023/05/12 08:51:08;;;;;;;0.97;0.97;;;;;16.20;96630.00;;;;5097380;28;20596;-66
2023/05/12 08:53:57;;;;;;;0.90;0.90;;;;;15.90;96629.00;;;;5073101;28;20207;-66
2023/05/12 08:56:47;;;;;;;1.40;0.90;;;;;16.10;96626.00;;;;5080836;28;20697;-66
2023/05/12 08:59:41;;;;;;;1.00;0.80;;;;;16.20;96624.00;;;;5081561;28;20229;-66
2023/05/12 09:02:32;;;;;;;0.83;0.83;;;;;16.20;96622.00;;;;5081254;28;20203;-66
2023/05/12 09:05:27;;;;;;;1.10;0.93;;;;;16.20;96628.00;;;;5075726;28;20289;-66
2023/05/12 09:08:17;;;;;;;1.80;1.20;;;;;16.40;96632.00;;;;5079270;28;20344;-66
2023/05/12 09:11:06;;;;;;;2.50;1.33;;;;;16.20;96639.00;;;;5089817;28;20224;-66
2023/05/12 09:14:01;;;;;;;1.23;1.13;;;;;16.20;96643.00;;;;5094768;28;20694;-66
2023/05/12 09:17:01;;;;;;;1.80;1.67;;;;;16.00;96637.00;;;;5092870;28;20218;-66
2023/05/12 09:19:50;;;;;;;1.33;1.10;;;;;15.90;96643.00;;;;5091300;28;20201;-66
2023/05/12 09:22:41;;;;;;;1.23;1.00;;;;;15.70;96654.00;;;;5097692;28;20191;-66
2023/05/12 09:25:30;;;;;;;0.73;0.73;;;;;15.60;96663.00;;;;5102315;28;20230;-66
2023/05/12 09:28:19;;;;;;;0.93;0.90;;;;;15.10;96666.00;;;;5079587;28;20227;-66
2023/05/12 09:31:18;;;;;;;4.63;1.00;;;;;14.80;96663.00;;;;5083038;28;20227;-66
2023/05/12 09:34:08;;;;;;;1.30;1.20;;;;;14.70;96670.00;;;;5098734;28;20213;-66
2023/05/12 09:36:58;;;;;;;1.67;0.83;;;;;14.60;96675.00;;;;5100764;28;20222;-66
2023/05/12 09:39:49;;;;;;;0.57;0.57;;;;;14.70;96668.00;;;;5083049;28;20203;-66
2023/05/12 09:42:38;;;;;;;1.63;1.17;;;;;14.90;96670.00;;;;5093419;28;20744;-65
2023/05/12 09:45:27;;;;;;;0.60;0.60;;;;;15.00;96657.00;;;;5080212;28;20723;-66
2023/05/12 09:48:16;;;;;;;0.60;0.60;;;;;15.00;96672.00;;;;5098640;28;20237;-66
2023/05/12 09:51:05;;;;;;;0.73;0.70;;;;;15.20;96670.00;;;;5108448;28;20276;-66
2023/05/12 09:53:54;;;;;;;1.53;0.60;;;;;15.30;96675.00;;;;5104148;28;20701;-66
2023/05/12 09:56:45;;;;;;;1.30;0.40;;;;;15.40;96658.00;;;;5092361;28;20298;-66
2023/05/12 09:59:37;;;;;;;0.60;0.37;;;;;14.80;96652.00;;;;5093885;28;20219;-65
2023/05/12 10:02:26;;;;;;;0.40;0.40;;;;;14.70;96649.00;;;;5084498;28;20206;-66
2023/05/12 10:05:16;;;;;;;0.60;0.50;;;;;14.20;96646.00;;;;5102672;28;20911;-66
2023/05/12 10:08:07;;;;;;;0.70;0.60;;;;;14.20;96643.00;;;;5097220;28;20223;-66
2023/05/12 10:10:57;;;;;;;0.40;0.40;;;;;14.40;96649.00;;;;5072837;28;20239;-65
2023/05/12 10:13:48;;;;;;;1.00;0.50;;;;;14.30;96654.00;;;;5088209;28;20207;-66
2023/05/12 10:16:37;;;;;;;1.40;0.73;;;;;14.10;96656.00;;;;5079583;28;20227;-66
2023/05/12 10:19:26;;;;;;;0.60;0.60;;;;;14.50;96654.00;;;;5083138;28;20816;-66
2023/05/12 10:22:16;;;;;;;0.60;0.60;;;;;14.90;96663.00;;;;5079042;28;20199;-67
2023/05/12 10:25:08;;;;;;;0.60;0.60;;;;;15.00;96657.00;;;;5083098;28;20698;-67
2023/05/12 10:27:57;;;;;;;0.80;0.57;;;;;15.30;96657.00;;;;5081476;28;20242;-66
2023/05/12 10:30:49;;;;;;;1.90;0.60;;;;;15.40;96656.00;;;;5086671;28;20284;-66
2023/05/12 10:33:38;;;;;;;0.60;0.53;;;;;15.20;96658.00;;;;5087265;28;20214;-66
2023/05/12 10:36:27;;;;;;;0.90;0.83;;;;;15.10;96660.00;;;;5086080;28;20234;-66
2023/05/12 10:39:16;;;;;;;1.77;0.67;;;;;14.60;96657.00;;;;5087479;28;20272;-66
2023/05/12 10:42:07;;;;;;;0.60;0.60;;;;;14.40;96653.00;;;;5085881;28;20200;-64
2023/05/12 10:44:57;;;;;;;0.40;0.40;;;;;13.60;96648.00;;;;5078759;28;20207;-66
2023/05/12 10:47:47;;;;;;;0.80;0.70;;;;;13.80;96652.00;;;;5084518;28;20231;-63
2023/05/12 10:50:37;;;;;;;1.03;0.53;;;;;14.10;96655.00;;;;5084350;28;20223;-63
2023/05/12 10:53:28;;;;;;;0.87;0.87;;;;;14.00;96656.00;;;;5087125;28;20291;-64
2023/05/12 10:56:26;;;;;;;4.70;3.60;;;;;14.20;96659.00;;;;5087053;28;20210;-63
2023/05/12 10:59:17;;;;;;;2.40;2.20;;;;;14.20;96651.00;;;;5084984;28;20210;-64
2023/05/12 11:02:15;;;;;;;0.90;0.70;;;;;14.10;96643.00;;;;5086130;28;20202;-64
2023/05/12 11:05:12;;;;;;;1.00;1.00;;;;;14.30;96655.00;;;;5087434;28;20281;-65
2023/05/12 11:08:02;;;;;;;0.80;0.80;;;;;14.60;96664.00;;;;5084949;28;20231;-65
2023/05/12 11:10:51;;;;;;;0.70;0.70;;;;;14.70;96664.00;;;;5086841;28;20219;-64
2023/05/12 11:13:41;;;;;;;2.00;0.50;;;;;15.10;96660.00;;;;5081524;28;20200;-65
2023/05/12 11:16:30;;;;;;;1.07;0.50;;;;;15.10;96666.00;;;;5101886;28;20271;-65
2023/05/12 11:19:19;;;;;;;0.70;0.70;;;;;15.10;96660.00;;;;5093593;28;20203;-65
2023/05/12 11:22:11;;;;;;;0.83;0.70;;;;;15.10;96655.00;;;;5085669;28;20287;-64
2023/05/12 11:25:10;;;;;;;0.40;0.40;;;;;15.20;96659.00;;;;5093163;28;20212;-65
2023/05/12 11:27:59;;;;;;;0.57;0.50;;;;;15.40;96669.00;;;;5093451;28;20222;-64
2023/05/12 11:30:52;;;;;;;0.60;0.50;;;;;15.90;96666.00;;;;5094523;28;20223;-64
2023/05/12 11:33:42;;;;;;;3.43;0.70;;;;;16.10;96667.00;;;;5083838;28;20215;-64
2023/05/12 11:36:37;;;;;;;2.37;0.83;;;;;16.20;96673.00;;;;5086513;28;20227;-65
2023/05/12 11:39:31;;;;;;;0.70;0.67;;;;;16.20;96672.00;;;;5085093;28;20215;-64
2023/05/12 11:42:20;;;;;;;1.00;0.90;;;;;16.50;96673.00;;;;5085074;28;20202;-64
2023/05/12 11:45:23;;;;;;;1.20;0.90;;;;;16.80;96668.00;;;;5084743;28;20253;-64
2023/05/12 11:48:13;;;;;;;2.20;1.10;;;;;16.90;96673.00;;;;5083577;28;20272;-64
2023/05/12 11:51:04;;;;;;;1.53;1.23;;;;;17.10;96675.00;;;;5084960;28;20222;-65
2023/05/12 11:53:54;;;;;;;4.53;1.17;;;;;17.30;96671.00;;;;5085650;28;20706;-65
2023/05/12 11:56:50;;;;;;;1.07;0.70;;;;;17.10;96685.00;;;;5084730;28;20215;-65
2023/05/12 11:59:39;;;;;;;0.60;0.60;;;;;17.00;96684.00;;;;5084456;28;20272;-65
2023/05/12 12:02:29;;;;;;;0.70;0.70;;;;;17.00;96685.00;;;;5085201;28;20195;-65
2023/05/12 12:05:19;;;;;;;1.23;0.80;;;;;16.90;96691.00;;;;5085977;28;20689;-65
2023/05/12 12:08:12;;;;;;;1.47;0.90;;;;;16.90;96694.00;;;;5086541;28;20247;-65
2023/05/12 12:11:03;;;;;;;0.73;0.70;;;;;16.90;96682.00;;;;5083257;28;20235;-65
2023/05/12 12:13:56;;;;;;;2.93;1.00;;;;;16.80;96684.00;;;;5079460;28;20203;-64
2023/05/12 12:16:45;;;;;;;1.67;1.20;;;;;16.90;96686.00;;;;5088135;28;20227;-65
2023/05/12 12:19:34;;;;;;;0.90;0.90;;;;;17.10;96689.00;;;;5088793;28;20218;-65
2023/05/12 12:22:23;;;;;;;1.30;1.13;;;;;17.20;96690.00;;;;5087497;28;20207;-65
2023/05/12 12:25:12;;;;;;;2.60;1.33;;;;;17.20;96685.00;;;;5088833;28;20207;-64
2023/05/12 12:28:01;;;;;;;0.97;0.80;;;;;17.20;96694.00;;;;5088421;28;20568;-65
2023/05/12 12:30:51;;;;;;;1.00;0.47;;;;;17.10;96690.00;;;;5089209;28;20206;-65
2023/05/12 12:33:40;;;;;;;1.47;1.37;;;;;17.00;96692.00;;;;5087244;28;20210;-64
2023/05/12 12:36:29;;;;;;;1.67;1.50;;;;;17.10;96696.00;;;;5085379;28;20219;-65
2023/05/12 12:39:18;;;;;;;2.50;1.20;;;;;17.20;96698.00;;;;5087261;28;20207;-65
2023/05/12 12:42:08;;;;;;;1.23;1.00;;;;;17.20;96697.00;;;;5088907;28;20195;-65
2023/05/12 12:44:57;;;;;;;0.90;0.90;;;;;17.30;96696.00;;;;5090088;28;20211;-64
2023/05/12 12:47:50;;;;;;;0.70;0.70;;;;;17.30;96701.00;;;;5087250;28;20234;-64
2023/05/12 12:50:39;;;;;;;0.87;0.40;;;;;16.80;96713.00;;;;5087396;28;20203;-64
2023/05/12 12:53:29;;;;;;;0.47;0.47;;;;;16.70;96710.00;;;;5085991;28;20655;-65
2023/05/12 12:56:18;;;;;;;0.70;0.70;;;;;16.40;96701.00;;;;5085991;28;20203;-65
2023/05/12 12:59:07;;;;;;;1.80;0.70;;;;;16.30;96707.00;;;;5089332;28;20223;-65
2023/05/12 13:01:58;;;;;;;0.60;0.60;;;;;16.20;96707.00;;;;5086348;28;20211;-65
2023/05/12 13:04:49;;;;;;;0.60;0.60;;;;;16.00;96713.00;;;;5088236;28;20204;-65
2023/05/12 13:07:38;;;;;;;0.83;0.80;;;;;15.90;96713.00;;;;5097751;28;20218;-64
2023/05/12 13:10:27;;;;;;;6.50;4.40;;;;;15.80;96714.00;;;;5086572;28;20210;-64
2023/05/12 13:13:16;;;;;;;1.50;1.03;;;;;15.40;96710.00;;;;5104207;28;20219;-64
2023/05/12 13:16:06;;;;;;;0.53;0.53;;;;;15.10;96708.00;;;;5099051;28;20203;-65
2023/05/12 13:18:55;;;;;;;0.40;0.40;;;;;15.20;96702.00;;;;5080001;28;20216;-64
2023/05/12 13:21:46;;;;;;;0.60;0.50;;;;;15.10;96697.00;;;;5083094;28;20565;-64
2023/05/12 13:24:35;;;;;;;0.50;0.50;;;;;14.40;96701.00;;;;5084797;28;20260;-63
2023/05/12 13:27:24;;;;;;;0.53;0.50;;;;;14.60;96698.00;;;;5086358;28;20623;-65
2023/05/12 13:30:13;;;;;;;0.57;0.57;;;;;14.40;96705.00;;;;5084033;28;20211;-64
2023/05/12 13:33:02;;;;;;;0.30;0.30;;;;;14.20;96701.00;;;;5094439;28;20258;-64
2023/05/12 13:35:53;;;;;;;0.40;0.40;;;;;14.20;96697.00;;;;5084346;28;20575;-65
2023/05/12 13:38:44;;;;;;;1.03;0.73;;;;;14.10;96701.00;;;;5085053;28;20207;-64
2023/05/12 13:41:36;;;;;;;0.30;0.30;;;;;14.20;96700.00;;;;5084566;28;20196;-64
2023/05/12 13:44:25;;;;;;;0.40;0.40;;;;;14.30;96696.00;;;;5083855;28;20203;-63
2023/05/12 13:47:14;;;;;;;0.47;0.47;;;;;14.00;96697.00;;;;5084732;28;20230;-63
2023/05/12 13:50:03;;;;;;;0.53;0.53;;;;;14.30;96706.00;;;;5086583;28;20728;-63
2023/05/12 13:52:52;;;;;;;0.63;0.63;;;;;14.10;96702.00;;;;5082953;28;20224;-64
2023/05/12 13:55:43;;;;;;;0.67;0.67;;;;;14.30;96710.00;;;;5096931;28;20206;-64
2023/05/12 13:58:32;;;;;;;0.73;0.73;;;;;14.20;96704.00;;;;5096202;28;20219;-67
2023/05/12 14:01:21;;;;;;;0.60;0.60;;;;;14.20;96704.00;;;;5081375;28;20204;-65
2023/05/12 14:04:11;;;;;;;5.10;0.73;;;;;13.90;96701.00;;;;5103662;28;20285;-62
2023/05/12 14:07:00;;;;;;;0.93;0.60;;;;;13.80;96702.00;;;;5102308;28;20220;-64
2023/05/12 14:09:49;;;;;;;1.23;0.60;;;;;13.70;96705.00;;;;5095392;28;20196;-64
2023/05/12 14:12:40;;;;;;;0.60;0.60;;;;;13.70;96717.00;;;;5109592;28;20229;-64